Portada
METAR-TAF:

METAR-TAF

Aeropuertos :

Aeropuerto de Barcelona-El Prat

Barcelona, España

latitud: 41-17N, longitud: 002-04E, altitud: 4 m

Observación

El informe se hizo hace 21 minutos, a las 12:30 UTC
Viento 13 kt del sur-suroeste
Temperatura 27°C
Humedad 54%
Presión 1019 hPa
Visibilidad 10 km o más
Escasas nubes a una altura de 1800 ft

METAR: LEBL 051230Z 21013KT 9999 FEW018 27/17 Q1019 NOSIG

Hora: 14:51 (12:51 UTC)

Pronóstico

El informe se hizo hace 1 hora y 51 minutos, a las 11:00 UTC
Pronóstico válido del 05 a las 12 UTC al 06 a las 12 UTC
Viento 12 kt del suroeste
Visibilidad 10 km o más
Escasas nubes a una altura de 3000 ft
Evolucionando progresivamente
del 05 a las 22 UTC al 05 a las 24 UTC
Viento 3 kt con dirección variable
Evolucionando progresivamente
del 06 a las 08 UTC al 06 a las 10 UTC
Viento 10 kt del este-sureste

TAF: LEBL 051100Z 0512/0612 22012KT 9999 FEW030 TX29/0512Z TN22/0606Z BECMG 0522/0524 VRB03KT BECMG 0608/0610 12010KT

Observaciones y pronósticos meteorológicos de más de 4000 aeropuertos (mensajes METAR y TAF).

Los puntos amarillos y rojos representan las estaciones disponibles.

Ponga el ratón en el punto deseado para ver el nombre de la estación.

Haga clic para ver las observaciones y los pronósticos meteorológicos.

Para cambiar el mapa : haga clic en los botones verdes con una cruz de color negro para hacer un zoom, en el botón verde con un guión para alejar o en las flechas verdes para mapas adyacentes.


METAR-TAF: